KGGW/GGW METAR and TAF weather

Enter ICAO airport designator
Station Type Date Time Source
KGGW METAR 2020/04/05 19:53 UTC NOAA

KGGW 051953Z AUTO 11021G28KT 10SM OVC095 06/M03 A2972 RMK AO2 PK WND 11028/1949 SLP086 T00611028


Station Type Date Time Source
KGGW Decoded METAR 2020/04/05 19:53 UTC NOAA

GLASGOW INTERNATIONAL AIRPORT , MT, United States (KGGW) 48-13N 106-37W 693M
Apr 05, 2020 - 03:53 PM EDT / 2020.04.05 1953 UTC
Wind: from the ESE (110 degrees) at 24 MPH (21 KT) gusting to 32 MPH (28 KT):0
Visibility: 10 mile(s):0
Sky conditions: overcast
Temperature: 43.0 F (6.1 C)
Dew Point: 27.0 F (-2.8 C)
Relative Humidity: 52%
Pressure (altimeter): 29.72 in. Hg (1006 hPa)
ob: KGGW 051953Z AUTO 11021G28KT 10SM OVC095 06/M03 A2972 RMK AO2 PK WND 11028/1949 SLP086 T00611028
cycle: 20

Station Type Date Time Source
KGGW TAF 2020/04/05 18:42 UTC NOAA

TAF KGGW 051739Z 0518/0618 11017G24KT P6SM FEW080
FM060000 11010KT P6SM SCT100

Example: see airport list